createdAt,value
2023-05-30T03:10:41.710Z,16.28
2023-05-30T03:13:28.814Z,16.16
2023-05-30T03:16:16.533Z,16.13
2023-05-30T03:19:03.625Z,16.17
2023-05-30T03:21:51.094Z,16.05
2023-05-30T03:24:38.883Z,15.49
2023-05-30T03:27:25.996Z,15.60
2023-05-30T03:30:14.126Z,15.93
2023-05-30T03:33:01.381Z,16.05
2023-05-30T03:35:48.570Z,16.11
2023-05-30T03:38:35.857Z,16.09
2023-05-30T03:41:23.110Z,16.14
2023-05-30T03:44:10.575Z,16.10
2023-05-30T03:46:58.487Z,15.99
2023-05-30T03:49:45.545Z,16.10
2023-05-30T03:52:32.446Z,16.16
2023-05-30T03:55:21.690Z,16.37
2023-05-30T03:58:08.578Z,16.62
2023-05-30T04:00:55.601Z,16.50
2023-05-30T04:03:46.298Z,16.43
2023-05-30T04:06:35.517Z,16.43
2023-05-30T04:09:22.452Z,16.66
2023-05-30T04:12:09.602Z,16.67
2023-05-30T04:14:56.641Z,16.55
2023-05-30T04:17:43.645Z,16.64
2023-05-30T04:20:30.626Z,16.63
2023-05-30T04:23:17.567Z,16.69
2023-05-30T04:26:05.554Z,16.65
2023-05-30T04:28:57.913Z,16.50
2023-05-30T04:31:45.152Z,16.61
2023-05-30T04:34:32.169Z,16.70
2023-05-30T04:37:19.374Z,16.54
2023-05-30T04:40:09.776Z,16.43
2023-05-30T04:42:57.788Z,16.54
2023-05-30T04:45:46.006Z,16.67
2023-05-30T04:48:33.476Z,16.51
2023-05-30T04:51:21.625Z,16.58
2023-05-30T04:54:08.763Z,16.61
2023-05-30T04:56:55.734Z,16.65
2023-05-30T04:59:42.634Z,16.58
2023-05-30T05:02:30.130Z,16.75
2023-05-30T05:05:16.975Z,16.83
2023-05-30T05:08:03.804Z,16.97
2023-05-30T05:10:50.833Z,16.94
2023-05-30T05:13:37.700Z,16.96
2023-05-30T05:16:24.655Z,16.91
2023-05-30T05:19:11.624Z,16.95
2023-05-30T05:21:58.503Z,16.83
2023-05-30T05:24:46.175Z,16.80
2023-05-30T05:27:34.287Z,16.86
2023-05-30T05:30:21.164Z,16.86
2023-05-30T05:33:08.679Z,16.77
2023-05-30T05:35:55.691Z,16.94
2023-05-30T05:38:42.532Z,17.05
2023-05-30T05:41:29.417Z,17.05
2023-05-30T05:44:16.259Z,17.04
2023-05-30T05:47:03.244Z,17.02
2023-05-30T05:49:50.062Z,16.82
2023-05-30T05:52:36.947Z,16.94
2023-05-30T05:55:23.839Z,17.23
2023-05-30T05:58:10.666Z,17.21
2023-05-30T06:00:57.661Z,17.41
2023-05-30T06:03:44.873Z,17.47
2023-05-30T06:06:31.806Z,17.57
2023-05-30T06:09:19.675Z,17.62
2023-05-30T06:12:07.972Z,17.36
2023-05-30T06:14:55.536Z,17.40
2023-05-30T06:17:42.499Z,17.49
2023-05-30T06:20:29.534Z,17.79
2023-05-30T06:22:56.260Z,17.86
2023-05-30T06:25:23.072Z,17.70
2023-05-30T06:27:49.626Z,17.85
2023-05-30T06:30:16.368Z,17.71
2023-05-30T06:32:44.000Z,17.91
2023-05-30T06:35:11.358Z,17.82
2023-05-30T06:37:38.268Z,18.01
2023-05-30T06:40:05.607Z,17.93
2023-05-30T06:42:34.354Z,18.03
2023-05-30T06:45:01.002Z,18.18
2023-05-30T06:47:27.716Z,18.31
2023-05-30T06:49:54.358Z,18.33
2023-05-30T06:52:21.100Z,18.36
2023-05-30T06:54:47.786Z,18.24
2023-05-30T06:57:14.425Z,18.29
2023-05-30T06:59:42.117Z,18.36
2023-05-30T07:02:08.748Z,18.51
2023-05-30T07:04:36.395Z,18.56
2023-05-30T07:07:03.116Z,18.54
2023-05-30T07:09:29.967Z,18.73
2023-05-30T07:11:56.631Z,18.73
2023-05-30T07:14:23.138Z,18.81
2023-05-30T07:16:49.740Z,18.79
2023-05-30T07:19:16.353Z,18.92
2023-05-30T07:21:42.894Z,19.15
2023-05-30T07:24:10.118Z,18.73
2023-05-30T07:26:36.858Z,18.90
2023-05-30T07:29:03.747Z,19.00
2023-05-30T07:31:30.457Z,19.12
2023-05-30T07:33:57.975Z,19.24
2023-05-30T07:36:24.822Z,19.24
2023-05-30T07:38:52.090Z,19.09
2023-05-30T07:41:18.653Z,19.14
2023-05-30T07:43:45.202Z,19.10
2023-05-30T07:46:11.834Z,19.26
2023-05-30T07:48:38.463Z,19.20
2023-05-30T07:51:05.401Z,19.15
2023-05-30T07:53:31.972Z,19.29
2023-05-30T07:55:59.584Z,19.57
2023-05-30T07:58:26.204Z,19.55
2023-05-30T08:00:52.729Z,19.55
2023-05-30T08:03:19.447Z,19.65
2023-05-30T08:05:47.929Z,19.75
2023-05-30T08:08:14.969Z,19.77
2023-05-30T08:10:41.565Z,19.96
2023-05-30T08:13:08.107Z,20.02
2023-05-30T08:15:35.010Z,20.20
2023-05-30T08:18:02.358Z,20.30
2023-05-30T08:20:30.637Z,20.43
2023-05-30T08:22:57.331Z,20.55
2023-05-30T08:25:34.239Z,20.56
2023-05-30T08:28:00.931Z,20.59
2023-05-30T08:30:27.558Z,20.77
2023-05-30T08:32:54.727Z,20.85
2023-05-30T08:35:21.414Z,20.77
2023-05-30T08:37:48.696Z,20.72
2023-05-30T08:40:15.839Z,20.75
2023-05-30T08:42:42.576Z,20.82
2023-05-30T08:45:09.542Z,20.63
2023-05-30T08:47:36.807Z,20.96
2023-05-30T08:50:05.276Z,21.13
2023-05-30T08:52:33.086Z,21.21
2023-05-30T08:55:11.591Z,21.33
2023-05-30T08:57:44.839Z,21.29
2023-05-30T09:00:15.068Z,21.52
2023-05-30T09:02:52.240Z,21.42
2023-05-30T09:05:19.067Z,21.42
2023-05-30T09:07:49.073Z,21.55
2023-05-30T09:10:16.427Z,21.74
2023-05-30T09:12:43.350Z,21.71
2023-05-30T09:15:10.217Z,21.49
2023-05-30T09:17:37.451Z,21.58
2023-05-30T09:20:06.633Z,21.75
2023-05-30T09:22:33.239Z,21.65
2023-05-30T09:25:01.904Z,21.74
2023-05-30T09:27:31.181Z,21.90
2023-05-30T09:29:57.788Z,21.52
2023-05-30T09:32:35.554Z,21.27
2023-05-30T09:35:11.261Z,21.45
2023-05-30T09:37:44.732Z,21.79
2023-05-30T09:40:18.413Z,21.98
2023-05-30T09:42:52.093Z,22.06
2023-05-30T09:45:23.927Z,21.88
2023-05-30T09:47:52.502Z,21.97
2023-05-30T09:50:21.340Z,22.25
2023-05-30T09:52:53.298Z,22.54
2023-05-30T09:55:20.866Z,22.79
2023-05-30T09:57:49.532Z,22.77
2023-05-30T10:00:31.361Z,22.59
2023-05-30T10:02:58.960Z,22.40
2023-05-30T10:05:28.098Z,22.75
2023-05-30T10:07:59.045Z,23.07
2023-05-30T10:10:26.432Z,23.30
2023-05-30T10:12:55.048Z,22.81
2023-05-30T10:15:24.590Z,22.66
2023-05-30T10:17:57.422Z,22.56
2023-05-30T10:20:27.432Z,22.60
2023-05-30T10:22:54.194Z,22.42
2023-05-30T10:25:22.403Z,22.12
2023-05-30T10:27:53.214Z,22.35
2023-05-30T10:30:27.087Z,22.44
2023-05-30T10:33:04.003Z,22.39
2023-05-30T10:35:33.118Z,22.49
2023-05-30T10:38:05.542Z,22.71
2023-05-30T10:40:37.926Z,23.16
2023-05-30T10:43:26.509Z,23.42
2023-05-30T10:46:19.354Z,23.41
2023-05-30T10:48:49.013Z,23.51
2023-05-30T10:51:15.753Z,23.34
2023-05-30T10:53:47.068Z,23.54
2023-05-30T10:56:39.285Z,23.45
2023-05-30T10:59:18.152Z,23.31
2023-05-30T11:02:00.011Z,23.37
2023-05-30T11:04:40.624Z,23.40
2023-05-30T11:07:12.578Z,23.23
2023-05-30T11:09:43.336Z,23.54
2023-05-30T11:12:22.960Z,23.74
2023-05-30T11:14:57.029Z,23.41
2023-05-30T11:17:34.322Z,23.43
2023-05-30T11:20:09.790Z,23.31
2023-05-30T11:22:38.919Z,23.04
2023-05-30T11:25:26.790Z,23.65
2023-05-30T11:28:05.867Z,23.85
2023-05-30T11:30:34.336Z,23.51
2023-05-30T11:33:01.217Z,23.46
2023-05-30T11:35:28.938Z,23.66
2023-05-30T11:37:57.902Z,23.45
2023-05-30T11:40:25.324Z,23.43
2023-05-30T11:42:53.143Z,23.68
2023-05-30T11:45:27.317Z,23.46
2023-05-30T11:47:54.019Z,23.18
2023-05-30T11:50:21.590Z,23.53
2023-05-30T11:52:48.289Z,23.69
2023-05-30T11:55:15.193Z,23.70
2023-05-30T11:57:41.969Z,23.83
2023-05-30T12:00:12.961Z,23.88
2023-05-30T12:02:40.297Z,24.01
2023-05-30T12:05:08.159Z,23.74
2023-05-30T12:07:34.781Z,23.68
2023-05-30T12:10:01.666Z,23.64
2023-05-30T12:12:28.808Z,23.81
2023-05-30T12:14:56.279Z,23.66
2023-05-30T12:17:25.816Z,24.05
2023-05-30T12:19:57.366Z,24.05
2023-05-30T12:22:25.539Z,23.73
2023-05-30T12:24:53.333Z,23.87
2023-05-30T12:27:26.310Z,23.66
2023-05-30T12:29:53.712Z,24.13
2023-05-30T12:32:30.610Z,24.11
2023-05-30T12:34:59.180Z,24.13
2023-05-30T12:37:26.420Z,24.33
2023-05-30T12:40:01.050Z,24.62
2023-05-30T12:42:29.035Z,24.97
2023-05-30T12:45:00.480Z,24.83
2023-05-30T12:47:28.654Z,24.60
2023-05-30T12:49:56.692Z,24.56
2023-05-30T12:52:28.252Z,24.68
2023-05-30T12:54:55.154Z,24.81
2023-05-30T12:57:26.487Z,24.99
2023-05-30T12:59:54.390Z,24.76
2023-05-30T13:02:25.433Z,24.77
2023-05-30T13:04:53.345Z,24.68
2023-05-30T13:07:21.191Z,24.91
2023-05-30T13:09:48.407Z,24.79
2023-05-30T13:12:17.040Z,24.68
2023-05-30T13:14:45.750Z,24.86
2023-05-30T13:17:13.116Z,24.93
2023-05-30T13:19:40.004Z,24.83
2023-05-30T13:22:09.176Z,24.84
2023-05-30T13:24:36.197Z,24.87
2023-05-30T13:27:02.930Z,24.94
2023-05-30T13:29:29.555Z,24.98
2023-05-30T13:31:56.467Z,24.95
2023-05-30T13:34:23.161Z,24.83
2023-05-30T13:36:49.819Z,24.83
2023-05-30T13:39:16.540Z,25.05
2023-05-30T13:41:43.308Z,24.89
2023-05-30T13:44:09.962Z,24.78
2023-05-30T13:49:08.804Z,24.54
2023-05-30T13:51:35.788Z,24.84
2023-05-30T13:54:05.450Z,25.08
2023-05-30T13:56:32.629Z,24.87
2023-05-30T13:59:00.297Z,24.82
2023-05-30T14:01:30.960Z,24.56
2023-05-30T14:03:58.157Z,24.77
2023-05-30T14:06:25.277Z,24.46
2023-05-30T14:08:52.203Z,24.79
2023-05-30T14:11:18.853Z,25.14
2023-05-30T14:13:45.577Z,24.65
2023-05-30T14:16:14.757Z,24.77
2023-05-30T14:18:46.678Z,24.61
2023-05-30T14:21:14.151Z,24.77
2023-05-30T14:23:40.949Z,24.80
2023-05-30T14:26:07.609Z,24.42
2023-05-30T14:28:34.623Z,24.57
2023-05-30T14:31:01.507Z,24.49
2023-05-30T14:33:28.364Z,24.59
2023-05-30T14:35:54.967Z,24.60
2023-05-30T14:38:21.722Z,24.63
2023-05-30T14:40:48.278Z,24.53
2023-05-30T14:43:14.878Z,24.61
2023-05-30T14:45:41.667Z,24.54
2023-05-30T14:48:09.772Z,24.38
2023-05-30T14:50:36.696Z,24.20
2023-05-30T14:53:03.649Z,24.15
2023-05-30T14:55:30.843Z,24.24
2023-05-30T14:57:58.309Z,24.19
2023-05-30T15:00:25.501Z,24.12
2023-05-30T15:02:52.651Z,24.23
2023-05-30T15:05:19.933Z,24.18
2023-05-30T15:07:47.523Z,24.20
2023-05-30T15:10:14.204Z,24.04
2023-05-30T15:12:43.010Z,24.28
2023-05-30T15:15:10.025Z,24.17
2023-05-30T15:17:37.751Z,24.17
2023-05-30T15:20:05.571Z,24.24
2023-05-30T15:22:32.214Z,24.24
2023-05-30T15:25:01.348Z,24.21
2023-05-30T15:27:28.759Z,24.07
2023-05-30T15:29:55.675Z,23.93
2023-05-30T15:32:22.339Z,24.01
2023-05-30T15:34:48.948Z,23.67
2023-05-30T15:37:15.530Z,23.79
2023-05-30T15:39:42.188Z,23.88
2023-05-30T15:42:09.019Z,23.97
2023-05-30T15:44:37.558Z,23.73
2023-05-30T15:47:04.410Z,23.64
2023-05-30T15:49:31.635Z,23.50
2023-05-30T15:51:58.408Z,23.43
2023-05-30T15:54:26.231Z,23.35
2023-05-30T15:56:52.990Z,23.56
2023-05-30T15:59:19.680Z,23.55
2023-05-30T16:01:46.291Z,23.41
2023-05-30T16:04:13.369Z,23.38
2023-05-30T16:06:40.045Z,23.24
2023-05-30T16:09:06.738Z,23.25
2023-05-30T16:11:33.557Z,22.98
2023-05-30T16:14:00.389Z,23.05
2023-05-30T16:16:28.043Z,22.75
2023-05-30T16:18:55.526Z,22.94
2023-05-30T16:21:22.080Z,22.98
2023-05-30T16:23:48.948Z,23.03
2023-05-30T16:26:15.636Z,22.96
2023-05-30T16:28:42.309Z,22.94
2023-05-30T16:31:09.331Z,22.97
2023-05-30T16:33:37.204Z,22.81
2023-05-30T16:36:08.493Z,22.59
2023-05-30T16:38:40.554Z,22.53
2023-05-30T16:41:13.716Z,22.46
2023-05-30T16:43:42.416Z,22.57
2023-05-30T16:46:10.639Z,22.73
2023-05-30T16:48:37.637Z,22.57
2023-05-30T16:51:04.654Z,22.59
2023-05-30T16:53:31.332Z,22.54
2023-05-30T16:55:58.107Z,22.33
2023-05-30T16:58:24.784Z,22.37
2023-05-30T17:00:51.857Z,22.46
2023-05-30T17:03:18.597Z,22.36
2023-05-30T17:06:04.298Z,22.37
2023-05-30T17:08:51.218Z,22.43
2023-05-30T17:11:38.097Z,22.57
2023-05-30T17:14:24.937Z,22.51
2023-05-30T17:17:11.775Z,22.53
2023-05-30T17:19:58.645Z,22.35
2023-05-30T17:22:45.775Z,22.13
2023-05-30T17:25:35.005Z,22.08
2023-05-30T17:28:25.435Z,22.05
2023-05-30T17:31:12.362Z,22.14
2023-05-30T17:33:59.193Z,22.18
2023-05-30T17:36:46.224Z,22.05
2023-05-30T17:39:33.116Z,21.94
2023-05-30T17:42:20.048Z,21.87
2023-05-30T17:45:07.724Z,21.63
2023-05-30T17:47:55.714Z,21.67
2023-05-30T17:50:42.608Z,21.69
2023-05-30T17:53:29.624Z,21.67
2023-05-30T17:56:17.887Z,21.55
2023-05-30T17:59:07.037Z,21.49
2023-05-30T18:01:54.027Z,21.42
2023-05-30T18:04:41.615Z,21.37
2023-05-30T18:07:28.550Z,21.23
2023-05-30T18:10:15.559Z,21.28
2023-05-30T18:13:02.458Z,21.16
2023-05-30T18:15:49.401Z,21.10
2023-05-30T18:18:36.309Z,21.16
2023-05-30T18:21:23.155Z,21.40
2023-05-30T18:24:10.288Z,21.21
2023-05-30T18:26:57.141Z,21.13
2023-05-30T18:29:44.369Z,21.05
2023-05-30T18:32:31.253Z,20.97
2023-05-30T18:35:18.157Z,20.81
2023-05-30T18:38:05.004Z,20.90
2023-05-30T18:40:51.861Z,20.71
2023-05-30T18:43:38.716Z,20.55
2023-05-30T18:46:26.093Z,20.73
2023-05-30T18:49:13.057Z,20.54
2023-05-30T18:51:59.971Z,20.51
2023-05-30T18:54:46.790Z,20.49
2023-05-30T18:57:33.715Z,20.61
2023-05-30T19:00:20.750Z,20.51
2023-05-30T19:03:07.706Z,20.50
2023-05-30T19:05:54.646Z,20.59
2023-05-30T19:08:41.557Z,20.51
2023-05-30T19:11:28.461Z,20.23
2023-05-30T19:14:15.586Z,20.12
2023-05-30T19:17:03.094Z,20.10
2023-05-30T19:19:52.426Z,20.07
2023-05-30T19:22:39.341Z,20.06
2023-05-30T19:25:26.444Z,20.04
2023-05-30T19:28:14.419Z,20.05
2023-05-30T19:31:02.412Z,19.82
2023-05-30T19:33:49.332Z,19.93
2023-05-30T19:36:36.270Z,19.96
2023-05-30T19:39:23.113Z,19.78
2023-05-30T19:42:10.064Z,19.72
2023-05-30T19:44:56.878Z,19.53
2023-05-30T19:47:43.916Z,19.51
2023-05-30T19:50:30.798Z,19.68
2023-05-30T19:53:17.968Z,19.68
2023-05-30T19:56:05.773Z,19.74
2023-05-30T19:58:52.726Z,19.56
2023-05-30T20:01:39.608Z,19.53
2023-05-30T20:04:26.861Z,19.83
2023-05-30T20:07:13.766Z,19.48
2023-05-30T20:10:00.833Z,19.37
2023-05-30T20:12:47.795Z,19.27
